sensor_id;sensor_type;location;lat;lon;timestamp;temperature;humidity
41939;DHT22;23057;48.554;14.454;2022-08-01T00:01:06;16.80;99.90
41939;DHT22;23057;48.554;14.454;2022-08-01T00:03:37;17.00;99.90
41939;DHT22;23057;48.554;14.454;2022-08-01T00:06:07;17.10;99.90
41939;DHT22;23057;48.554;14.454;2022-08-01T00:08:38;16.90;99.90
41939;DHT22;23057;48.554;14.454;2022-08-01T00:11:09;16.70;99.90
41939;DHT22;23057;48.554;14.454;2022-08-01T00:13:40;16.50;99.90
41939;DHT22;23057;48.554;14.454;2022-08-01T00:16:11;16.30;99.90
41939;DHT22;23057;48.554;14.454;2022-08-01T00:18:42;16.10;99.90
41939;DHT22;23057;48.554;14.454;2022-08-01T00:21:13;16.10;99.90
41939;DHT22;23057;48.554;14.454;2022-08-01T00:23:44;16.00;99.90
41939;DHT22;23057;48.554;14.454;2022-08-01T00:26:17;16.10;99.90
41939;DHT22;23057;48.554;14.454;2022-08-01T00:28:48;16.10;99.90
41939;DHT22;23057;48.554;14.454;2022-08-01T00:31:19;16.20;99.90
41939;DHT22;23057;48.554;14.454;2022-08-01T00:33:50;16.20;99.90
41939;DHT22;23057;48.554;14.454;2022-08-01T00:36:21;16.20;99.90
41939;DHT22;23057;48.554;14.454;2022-08-01T00:38:51;16.30;99.90
41939;DHT22;23057;48.554;14.454;2022-08-01T00:41:22;16.40;99.90
41939;DHT22;23057;48.554;14.454;2022-08-01T00:43:53;16.50;99.90
41939;DHT22;23057;48.554;14.454;2022-08-01T00:46:24;16.70;99.90
41939;DHT22;23057;48.554;14.454;2022-08-01T00:48:55;16.70;99.90
41939;DHT22;23057;48.554;14.454;2022-08-01T00:51:27;16.70;99.90
41939;DHT22;23057;48.554;14.454;2022-08-01T00:53:59;16.70;99.90
41939;DHT22;23057;48.554;14.454;2022-08-01T00:56:30;16.80;99.90
41939;DHT22;23057;48.554;14.454;2022-08-01T00:59:01;16.90;99.90
41939;DHT22;23057;48.554;14.454;2022-08-01T01:01:33;16.90;99.90
41939;DHT22;23057;48.554;14.454;2022-08-01T01:04:05;16.90;99.90
41939;DHT22;23057;48.554;14.454;2022-08-01T01:09:34;16.90;99.90
41939;DHT22;23057;48.554;14.454;2022-08-01T01:15:33;16.90;99.90
41939;DHT22;23057;48.554;14.454;2022-08-01T01:18:25;16.90;99.90
41939;DHT22;23057;48.554;14.454;2022-08-01T01:29:52;16.40;99.90
41939;DHT22;23057;48.554;14.454;2022-08-01T01:32:31;16.50;99.90
41939;DHT22;23057;48.554;14.454;2022-08-01T01:35:20;16.50;99.90
41939;DHT22;23057;48.554;14.454;2022-08-01T01:37:58;16.60;99.90
41939;DHT22;23057;48.554;14.454;2022-08-01T01:40:37;16.70;99.90
41939;DHT22;23057;48.554;14.454;2022-08-01T01:43:11;16.60;99.90
41939;DHT22;23057;48.554;14.454;2022-08-01T01:45:45;16.60;99.90
41939;DHT22;23057;48.554;14.454;2022-08-01T01:48:18;16.60;99.90
41939;DHT22;23057;48.554;14.454;2022-08-01T01:50:52;16.60;99.90
41939;DHT22;23057;48.554;14.454;2022-08-01T01:53:24;16.60;99.90
41939;DHT22;23057;48.554;14.454;2022-08-01T01:55:58;16.60;99.90
41939;DHT22;23057;48.554;14.454;2022-08-01T01:58:33;16.50;99.90
41939;DHT22;23057;48.554;14.454;2022-08-01T02:01:07;16.40;99.90
41939;DHT22;23057;48.554;14.454;2022-08-01T02:03:39;16.30;99.90
41939;DHT22;23057;48.554;14.454;2022-08-01T02:06:13;16.30;99.90
41939;DHT22;23057;48.554;14.454;2022-08-01T02:08:46;16.40;99.90
41939;DHT22;23057;48.554;14.454;2022-08-01T02:11:19;16.30;99.90
41939;DHT22;23057;48.554;14.454;2022-08-01T02:16:33;16.40;99.90
41939;DHT22;23057;48.554;14.454;2022-08-01T02:19:08;16.40;99.90
41939;DHT22;23057;48.554;14.454;2022-08-01T02:21:44;16.50;99.90
41939;DHT22;23057;48.554;14.454;2022-08-01T02:24:27;16.60;99.90
41939;DHT22;23057;48.554;14.454;2022-08-01T02:27:11;16.50;99.90
41939;DHT22;23057;48.554;14.454;2022-08-01T02:29:52;16.50;99.90
41939;DHT22;23057;48.554;14.454;2022-08-01T02:32:30;16.40;99.90
41939;DHT22;23057;48.554;14.454;2022-08-01T02:35:12;16.50;99.90
41939;DHT22;23057;48.554;14.454;2022-08-01T02:37:52;16.40;99.90
41939;DHT22;23057;48.554;14.454;2022-08-01T02:40:29;16.30;99.90
41939;DHT22;23057;48.554;14.454;2022-08-01T02:43:03;16.30;99.90
41939;DHT22;23057;48.554;14.454;2022-08-01T02:45:37;16.30;99.90
41939;DHT22;23057;48.554;14.454;2022-08-01T02:48:14;16.20;99.90
41939;DHT22;23057;48.554;14.454;2022-08-01T02:50:49;16.10;99.90
41939;DHT22;23057;48.554;14.454;2022-08-01T02:53:25;16.10;99.90
41939;DHT22;23057;48.554;14.454;2022-08-01T02:56:05;16.00;99.90
41939;DHT22;23057;48.554;14.454;2022-08-01T02:58:38;16.00;99.90
41939;DHT22;23057;48.554;14.454;2022-08-01T03:01:12;16.00;99.90
41939;DHT22;23057;48.554;14.454;2022-08-01T03:03:46;16.00;99.90
41939;DHT22;23057;48.554;14.454;2022-08-01T03:06:18;16.00;99.90
41939;DHT22;23057;48.554;14.454;2022-08-01T03:08:49;16.00;99.90
41939;DHT22;23057;48.554;14.454;2022-08-01T03:11:22;16.00;99.90
41939;DHT22;23057;48.554;14.454;2022-08-01T03:13:58;15.90;99.90
41939;DHT22;23057;48.554;14.454;2022-08-01T03:16:33;16.00;99.90
41939;DHT22;23057;48.554;14.454;2022-08-01T03:19:10;16.00;99.90
41939;DHT22;23057;48.554;14.454;2022-08-01T03:21:42;16.00;99.90
41939;DHT22;23057;48.554;14.454;2022-08-01T03:24:15;15.90;99.90
41939;DHT22;23057;48.554;14.454;2022-08-01T03:26:48;15.90;99.90
41939;DHT22;23057;48.554;14.454;2022-08-01T03:29:25;15.90;99.90
41939;DHT22;23057;48.554;14.454;2022-08-01T03:31:58;15.80;99.90
41939;DHT22;23057;48.554;14.454;2022-08-01T03:34:31;15.80;99.90
41939;DHT22;23057;48.554;14.454;2022-08-01T03:37:05;15.80;99.90
41939;DHT22;23057;48.554;14.454;2022-08-01T03:39:48;15.80;99.90
41939;DHT22;23057;48.554;14.454;2022-08-01T03:42:47;15.80;99.90
41939;DHT22;23057;48.554;14.454;2022-08-01T03:45:23;15.80;99.90
41939;DHT22;23057;48.554;14.454;2022-08-01T03:48:05;15.80;99.90
41939;DHT22;23057;48.554;14.454;2022-08-01T03:50:48;15.80;99.90
41939;DHT22;23057;48.554;14.454;2022-08-01T03:53:23;15.80;99.90
41939;DHT22;23057;48.554;14.454;2022-08-01T03:56:01;15.90;99.90
41939;DHT22;23057;48.554;14.454;2022-08-01T03:58:34;16.00;99.90
41939;DHT22;23057;48.554;14.454;2022-08-01T04:01:09;16.10;99.90
41939;DHT22;23057;48.554;14.454;2022-08-01T04:03:41;16.10;99.90
41939;DHT22;23057;48.554;14.454;2022-08-01T04:06:14;16.10;99.90
41939;DHT22;23057;48.554;14.454;2022-08-01T04:08:45;16.10;99.90
41939;DHT22;23057;48.554;14.454;2022-08-01T04:11:25;16.10;99.90
41939;DHT22;23057;48.554;14.454;2022-08-01T04:13:58;16.10;99.90
41939;DHT22;23057;48.554;14.454;2022-08-01T04:16:29;16.10;99.90
41939;DHT22;23057;48.554;14.454;2022-08-01T04:19:00;16.20;99.90
41939;DHT22;23057;48.554;14.454;2022-08-01T04:21:31;16.30;99.90
41939;DHT22;23057;48.554;14.454;2022-08-01T04:24:12;16.40;99.90
41939;DHT22;23057;48.554;14.454;2022-08-01T04:26:48;16.60;99.90
41939;DHT22;23057;48.554;14.454;2022-08-01T04:29:22;16.80;99.90
41939;DHT22;23057;48.554;14.454;2022-08-01T04:31:55;16.90;99.90
41939;DHT22;23057;48.554;14.454;2022-08-01T04:34:30;17.00;99.90
41939;DHT22;23057;48.554;14.454;2022-08-01T04:37:03;17.10;99.90
41939;DHT22;23057;48.554;14.454;2022-08-01T04:39:35;17.10;99.90
41939;DHT22;23057;48.554;14.454;2022-08-01T04:42:10;17.20;99.90
41939;DHT22;23057;48.554;14.454;2022-08-01T04:44:44;17.20;99.90
41939;DHT22;23057;48.554;14.454;2022-08-01T04:47:15;17.20;99.90
41939;DHT22;23057;48.554;14.454;2022-08-01T04:49:47;17.20;99.90
41939;DHT22;23057;48.554;14.454;2022-08-01T04:52:19;17.20;99.90
41939;DHT22;23057;48.554;14.454;2022-08-01T04:54:50;17.20;99.90
41939;DHT22;23057;48.554;14.454;2022-08-01T04:57:20;17.20;99.90
41939;DHT22;23057;48.554;14.454;2022-08-01T04:59:51;17.30;99.90
41939;DHT22;23057;48.554;14.454;2022-08-01T05:02:26;17.30;99.90
41939;DHT22;23057;48.554;14.454;2022-08-01T05:04:59;17.30;99.90
41939;DHT22;23057;48.554;14.454;2022-08-01T05:07:30;17.30;99.90
41939;DHT22;23057;48.554;14.454;2022-08-01T05:10:00;17.30;99.90
41939;DHT22;23057;48.554;14.454;2022-08-01T05:12:31;17.30;99.90
41939;DHT22;23057;48.554;14.454;2022-08-01T05:15:02;17.30;99.90
41939;DHT22;23057;48.554;14.454;2022-08-01T05:17:34;17.40;99.90
41939;DHT22;23057;48.554;14.454;2022-08-01T05:20:05;17.40;99.90
41939;DHT22;23057;48.554;14.454;2022-08-01T05:22:36;17.50;99.90
41939;DHT22;23057;48.554;14.454;2022-08-01T05:25:08;17.50;99.90
41939;DHT22;23057;48.554;14.454;2022-08-01T05:27:39;17.60;99.90
41939;DHT22;23057;48.554;14.454;2022-08-01T05:30:10;17.60;99.90
41939;DHT22;23057;48.554;14.454;2022-08-01T05:32:42;17.60;99.90
41939;DHT22;23057;48.554;14.454;2022-08-01T05:35:12;17.60;99.90
41939;DHT22;23057;48.554;14.454;2022-08-01T05:37:43;17.60;99.90
41939;DHT22;23057;48.554;14.454;2022-08-01T05:40:14;17.70;73.70
41939;DHT22;23057;48.554;14.454;2022-08-01T05:42:45;17.80;36.00
41939;DHT22;23057;48.554;14.454;2022-08-01T05:45:16;17.90;99.90
41939;DHT22;23057;48.554;14.454;2022-08-01T05:47:46;18.00;1.00
41939;DHT22;23057;48.554;14.454;2022-08-01T05:50:17;18.00;99.90
41939;DHT22;23057;48.554;14.454;2022-08-01T05:52:48;18.10;99.90
41939;DHT22;23057;48.554;14.454;2022-08-01T05:55:19;18.30;1.00
41939;DHT22;23057;48.554;14.454;2022-08-01T05:57:50;18.50;1.00
41939;DHT22;23057;48.554;14.454;2022-08-01T06:00:21;18.70;99.90
41939;DHT22;23057;48.554;14.454;2022-08-01T06:02:52;18.90;99.90
41939;DHT22;23057;48.554;14.454;2022-08-01T06:05:22;19.10;99.90
41939;DHT22;23057;48.554;14.454;2022-08-01T06:07:53;19.20;99.90
41939;DHT22;23057;48.554;14.454;2022-08-01T06:10:24;19.60;99.90
41939;DHT22;23057;48.554;14.454;2022-08-01T06:12:55;20.30;99.90
41939;DHT22;23057;48.554;14.454;2022-08-01T06:15:26;21.00;98.70
41939;DHT22;23057;48.554;14.454;2022-08-01T06:17:57;21.30;99.90
41939;DHT22;23057;48.554;14.454;2022-08-01T06:20:28;22.90;1.00
41939;DHT22;23057;48.554;14.454;2022-08-01T06:22:59;24.10;99.90
41939;DHT22;23057;48.554;14.454;2022-08-01T06:25:30;24.40;99.90
41939;DHT22;23057;48.554;14.454;2022-08-01T06:28:01;24.30;99.90
41939;DHT22;23057;48.554;14.454;2022-08-01T06:30:32;23.40;99.90
41939;DHT22;23057;48.554;14.454;2022-08-01T06:33:03;22.70;1.00
41939;DHT22;23057;48.554;14.454;2022-08-01T06:35:34;22.20;1.00
41939;DHT22;23057;48.554;14.454;2022-08-01T06:38:06;22.40;34.40
41939;DHT22;23057;48.554;14.454;2022-08-01T06:40:36;22.40;1.00
41939;DHT22;23057;48.554;14.454;2022-08-01T06:43:08;22.20;1.00
41939;DHT22;23057;48.554;14.454;2022-08-01T06:45:41;22.20;36.50
41939;DHT22;23057;48.554;14.454;2022-08-01T06:48:12;22.30;1.00
41939;DHT22;23057;48.554;14.454;2022-08-01T06:50:43;23.00;1.00
41939;DHT22;23057;48.554;14.454;2022-08-01T06:53:14;23.30;1.00
41939;DHT22;23057;48.554;14.454;2022-08-01T06:55:46;24.40;99.90
41939;DHT22;23057;48.554;14.454;2022-08-01T06:58:17;24.60;99.90
41939;DHT22;23057;48.554;14.454;2022-08-01T07:00:48;25.40;99.90
41939;DHT22;23057;48.554;14.454;2022-08-01T07:03:18;24.90;99.90
41939;DHT22;23057;48.554;14.454;2022-08-01T07:05:49;24.60;99.90
41939;DHT22;23057;48.554;14.454;2022-08-01T07:08:20;24.80;99.90
41939;DHT22;23057;48.554;14.454;2022-08-01T07:10:51;24.80;99.90
41939;DHT22;23057;48.554;14.454;2022-08-01T07:13:22;24.90;99.90
41939;DHT22;23057;48.554;14.454;2022-08-01T07:15:55;25.10;99.90
41939;DHT22;23057;48.554;14.454;2022-08-01T07:18:25;25.20;99.90
41939;DHT22;23057;48.554;14.454;2022-08-01T07:20:56;25.40;99.90
41939;DHT22;23057;48.554;14.454;2022-08-01T07:23:27;25.30;99.90
41939;DHT22;23057;48.554;14.454;2022-08-01T07:25:58;25.20;99.90
41939;DHT22;23057;48.554;14.454;2022-08-01T07:28:31;25.10;99.90
41939;DHT22;23057;48.554;14.454;2022-08-01T07:31:02;25.60;99.90
41939;DHT22;23057;48.554;14.454;2022-08-01T07:33:33;25.50;99.90
41939;DHT22;23057;48.554;14.454;2022-08-01T07:36:04;25.80;99.90
41939;DHT22;23057;48.554;14.454;2022-08-01T07:38:34;25.60;99.90
41939;DHT22;23057;48.554;14.454;2022-08-01T07:41:05;25.80;99.90
41939;DHT22;23057;48.554;14.454;2022-08-01T07:43:36;25.60;99.90
41939;DHT22;23057;48.554;14.454;2022-08-01T07:46:07;26.10;99.90
41939;DHT22;23057;48.554;14.454;2022-08-01T07:48:38;26.50;99.90
41939;DHT22;23057;48.554;14.454;2022-08-01T07:51:09;25.90;99.90
41939;DHT22;23057;48.554;14.454;2022-08-01T07:53:40;26.30;99.90
41939;DHT22;23057;48.554;14.454;2022-08-01T07:56:12;26.90;99.90
41939;DHT22;23057;48.554;14.454;2022-08-01T07:58:42;26.70;99.90
41939;DHT22;23057;48.554;14.454;2022-08-01T08:01:13;26.80;99.90
41939;DHT22;23057;48.554;14.454;2022-08-01T08:03:44;26.60;99.90
41939;DHT22;23057;48.554;14.454;2022-08-01T08:06:15;26.70;99.90
41939;DHT22;23057;48.554;14.454;2022-08-01T08:08:46;27.10;99.90
41939;DHT22;23057;48.554;14.454;2022-08-01T08:11:16;26.90;99.90
41939;DHT22;23057;48.554;14.454;2022-08-01T08:13:47;27.10;99.90
41939;DHT22;23057;48.554;14.454;2022-08-01T08:16:18;27.20;99.90
41939;DHT22;23057;48.554;14.454;2022-08-01T08:18:51;26.50;99.90
41939;DHT22;23057;48.554;14.454;2022-08-01T08:21:21;25.50;99.90
41939;DHT22;23057;48.554;14.454;2022-08-01T08:23:52;25.50;99.90
41939;DHT22;23057;48.554;14.454;2022-08-01T08:26:42;25.60;99.90
41939;DHT22;23057;48.554;14.454;2022-08-01T08:29:12;26.00;99.90
41939;DHT22;23057;48.554;14.454;2022-08-01T08:31:44;26.00;99.90
41939;DHT22;23057;48.554;14.454;2022-08-01T08:34:15;26.50;99.90
41939;DHT22;23057;48.554;14.454;2022-08-01T08:36:46;26.50;99.90
41939;DHT22;23057;48.554;14.454;2022-08-01T08:39:18;26.40;99.90
41939;DHT22;23057;48.554;14.454;2022-08-01T08:41:49;26.30;99.90
41939;DHT22;23057;48.554;14.454;2022-08-01T08:44:20;26.30;99.90
41939;DHT22;23057;48.554;14.454;2022-08-01T08:46:51;25.70;99.90
41939;DHT22;23057;48.554;14.454;2022-08-01T08:49:23;25.20;99.90
41939;DHT22;23057;48.554;14.454;2022-08-01T08:51:58;25.10;99.90
41939;DHT22;23057;48.554;14.454;2022-08-01T08:54:31;24.90;99.90
41939;DHT22;23057;48.554;14.454;2022-08-01T08:57:02;25.00;99.90
41939;DHT22;23057;48.554;14.454;2022-08-01T08:59:35;25.00;99.90
41939;DHT22;23057;48.554;14.454;2022-08-01T09:02:07;25.40;99.90
41939;DHT22;23057;48.554;14.454;2022-08-01T09:04:39;25.60;99.90
41939;DHT22;23057;48.554;14.454;2022-08-01T09:07:11;25.60;99.90
41939;DHT22;23057;48.554;14.454;2022-08-01T09:09:44;25.60;99.90
41939;DHT22;23057;48.554;14.454;2022-08-01T09:12:18;26.00;99.90
41939;DHT22;23057;48.554;14.454;2022-08-01T09:14:50;25.70;99.90
41939;DHT22;23057;48.554;14.454;2022-08-01T09:17:23;25.40;99.90
41939;DHT22;23057;48.554;14.454;2022-08-01T09:19:55;25.10;99.90
41939;DHT22;23057;48.554;14.454;2022-08-01T09:22:26;24.90;99.90
41939;DHT22;23057;48.554;14.454;2022-08-01T09:25:05;25.30;99.90
41939;DHT22;23057;48.554;14.454;2022-08-01T09:27:39;25.80;99.90
41939;DHT22;23057;48.554;14.454;2022-08-01T09:33:02;26.10;99.90
41939;DHT22;23057;48.554;14.454;2022-08-01T09:35:34;26.00;99.90
41939;DHT22;23057;48.554;14.454;2022-08-01T09:40:55;26.30;99.90
41939;DHT22;23057;48.554;14.454;2022-08-01T09:43:30;26.00;99.90
41939;DHT22;23057;48.554;14.454;2022-08-01T09:46:05;25.60;99.90
41939;DHT22;23057;48.554;14.454;2022-08-01T09:48:56;25.30;99.90
41939;DHT22;23057;48.554;14.454;2022-08-01T09:51:36;25.10;99.90
41939;DHT22;23057;48.554;14.454;2022-08-01T09:54:09;24.60;99.90
41939;DHT22;23057;48.554;14.454;2022-08-01T09:56:40;24.80;99.90
41939;DHT22;23057;48.554;14.454;2022-08-01T09:59:13;25.10;99.90
41939;DHT22;23057;48.554;14.454;2022-08-01T10:01:45;24.90;99.90
41939;DHT22;23057;48.554;14.454;2022-08-01T10:04:19;24.50;99.90
41939;DHT22;23057;48.554;14.454;2022-08-01T10:06:51;24.20;99.90
41939;DHT22;23057;48.554;14.454;2022-08-01T10:09:36;24.30;99.90
41939;DHT22;23057;48.554;14.454;2022-08-01T10:12:08;24.20;99.90
41939;DHT22;23057;48.554;14.454;2022-08-01T10:14:41;24.10;99.90
41939;DHT22;23057;48.554;14.454;2022-08-01T10:17:18;24.30;99.90
41939;DHT22;23057;48.554;14.454;2022-08-01T10:19:50;24.50;99.90
41939;DHT22;23057;48.554;14.454;2022-08-01T10:22:24;23.30;1.00
41939;DHT22;23057;48.554;14.454;2022-08-01T10:25:02;22.10;21.60
41939;DHT22;23057;48.554;14.454;2022-08-01T10:27:35;21.60;53.60
41939;DHT22;23057;48.554;14.454;2022-08-01T10:30:08;21.70;99.90
41939;DHT22;23057;48.554;14.454;2022-08-01T10:32:40;21.70;99.90
41939;DHT22;23057;48.554;14.454;2022-08-01T10:35:12;21.60;99.90
41939;DHT22;23057;48.554;14.454;2022-08-01T10:37:47;21.60;99.90
41939;DHT22;23057;48.554;14.454;2022-08-01T10:40:20;21.70;62.10
41939;DHT22;23057;48.554;14.454;2022-08-01T10:42:52;21.90;77.70
41939;DHT22;23057;48.554;14.454;2022-08-01T10:45:24;22.00;11.20
41939;DHT22;23057;48.554;14.454;2022-08-01T10:51:08;20.90;99.90
41939;DHT22;23057;48.554;14.454;2022-08-01T10:53:45;20.60;99.90
41939;DHT22;23057;48.554;14.454;2022-08-01T10:56:22;20.30;99.90
41939;DHT22;23057;48.554;14.454;2022-08-01T10:59:01;20.40;99.90
41939;DHT22;23057;48.554;14.454;2022-08-01T11:01:34;20.30;99.90
41939;DHT22;23057;48.554;14.454;2022-08-01T11:04:14;20.10;99.90
41939;DHT22;23057;48.554;14.454;2022-08-01T11:07:02;20.20;99.90
41939;DHT22;23057;48.554;14.454;2022-08-01T11:09:41;20.40;99.90
41939;DHT22;23057;48.554;14.454;2022-08-01T11:12:16;20.90;99.90
41939;DHT22;23057;48.554;14.454;2022-08-01T11:17:32;21.30;99.90
41939;DHT22;23057;48.554;14.454;2022-08-01T11:30:49;21.80;99.90
41939;DHT22;23057;48.554;14.454;2022-08-01T11:41:28;22.90;88.90
41939;DHT22;23057;48.554;14.454;2022-08-01T11:44:03;23.10;17.60
41939;DHT22;23057;48.554;14.454;2022-08-01T11:46:55;23.30;1.00
41939;DHT22;23057;48.554;14.454;2022-08-01T11:52:08;23.20;1.00
41939;DHT22;23057;48.554;14.454;2022-08-01T11:54:40;22.50;17.00
41939;DHT22;23057;48.554;14.454;2022-08-01T11:57:21;22.20;99.90
41939;DHT22;23057;48.554;14.454;2022-08-01T12:00:05;22.40;99.90
41939;DHT22;23057;48.554;14.454;2022-08-01T12:02:45;22.40;99.90
41939;DHT22;23057;48.554;14.454;2022-08-01T12:05:26;22.80;99.90
41939;DHT22;23057;48.554;14.454;2022-08-01T12:07:59;23.20;99.90
41939;DHT22;23057;48.554;14.454;2022-08-01T12:10:34;23.20;1.00
41939;DHT22;23057;48.554;14.454;2022-08-01T12:13:06;23.30;1.00
41939;DHT22;23057;48.554;14.454;2022-08-01T12:15:37;23.80;1.00
41939;DHT22;23057;48.554;14.454;2022-08-01T12:18:08;24.40;1.00
41939;DHT22;23057;48.554;14.454;2022-08-01T12:20:40;24.40;1.00
41939;DHT22;23057;48.554;14.454;2022-08-01T12:23:14;24.60;99.90
41939;DHT22;23057;48.554;14.454;2022-08-01T12:25:50;24.70;99.90
41939;DHT22;23057;48.554;14.454;2022-08-01T12:28:22;24.60;99.90
41939;DHT22;23057;48.554;14.454;2022-08-01T12:30:53;24.50;99.90
41939;DHT22;23057;48.554;14.454;2022-08-01T12:33:24;24.30;99.90
41939;DHT22;23057;48.554;14.454;2022-08-01T12:35:54;24.00;99.90
41939;DHT22;23057;48.554;14.454;2022-08-01T12:38:26;24.00;99.90
41939;DHT22;23057;48.554;14.454;2022-08-01T12:40:58;24.70;99.90
41939;DHT22;23057;48.554;14.454;2022-08-01T12:43:28;24.70;99.90
41939;DHT22;23057;48.554;14.454;2022-08-01T12:46:02;24.60;99.90
41939;DHT22;23057;48.554;14.454;2022-08-01T12:48:33;24.50;99.90
41939;DHT22;23057;48.554;14.454;2022-08-01T12:51:04;24.40;99.90
41939;DHT22;23057;48.554;14.454;2022-08-01T12:53:39;24.40;99.90
41939;DHT22;23057;48.554;14.454;2022-08-01T12:56:11;24.30;99.90
41939;DHT22;23057;48.554;14.454;2022-08-01T12:58:42;24.30;99.90
41939;DHT22;23057;48.554;14.454;2022-08-01T13:01:12;23.90;99.90
41939;DHT22;23057;48.554;14.454;2022-08-01T13:03:56;23.60;99.90
41939;DHT22;23057;48.554;14.454;2022-08-01T13:06:30;23.60;99.90
41939;DHT22;23057;48.554;14.454;2022-08-01T13:09:05;23.50;99.90
41939;DHT22;23057;48.554;14.454;2022-08-01T13:11:37;23.50;99.90
41939;DHT22;23057;48.554;14.454;2022-08-01T13:14:08;23.50;99.90
41939;DHT22;23057;48.554;14.454;2022-08-01T13:16:46;23.60;99.90
41939;DHT22;23057;48.554;14.454;2022-08-01T13:19:18;24.00;99.90
41939;DHT22;23057;48.554;14.454;2022-08-01T13:21:55;24.60;99.90
41939;DHT22;23057;48.554;14.454;2022-08-01T13:24:28;25.30;99.90
41939;DHT22;23057;48.554;14.454;2022-08-01T13:27:00;25.30;99.90
41939;DHT22;23057;48.554;14.454;2022-08-01T13:34:44;25.30;99.90
41939;DHT22;23057;48.554;14.454;2022-08-01T13:37:15;25.60;99.90
41939;DHT22;23057;48.554;14.454;2022-08-01T13:39:46;24.90;99.90
41939;DHT22;23057;48.554;14.454;2022-08-01T13:42:17;24.70;99.90
41939;DHT22;23057;48.554;14.454;2022-08-01T13:44:48;24.60;99.90
41939;DHT22;23057;48.554;14.454;2022-08-01T13:47:19;24.60;99.90
41939;DHT22;23057;48.554;14.454;2022-08-01T13:49:50;24.60;99.90
41939;DHT22;23057;48.554;14.454;2022-08-01T13:52:21;24.60;99.90
41939;DHT22;23057;48.554;14.454;2022-08-01T13:54:52;24.70;99.90
41939;DHT22;23057;48.554;14.454;2022-08-01T13:57:22;25.20;99.90
41939;DHT22;23057;48.554;14.454;2022-08-01T13:59:53;25.20;99.90
41939;DHT22;23057;48.554;14.454;2022-08-01T14:02:26;25.40;99.90
41939;DHT22;23057;48.554;14.454;2022-08-01T14:04:57;25.60;99.90
41939;DHT22;23057;48.554;14.454;2022-08-01T14:07:28;25.80;99.90
41939;DHT22;23057;48.554;14.454;2022-08-01T14:09:59;25.50;99.90
41939;DHT22;23057;48.554;14.454;2022-08-01T14:12:30;25.40;99.90
41939;DHT22;23057;48.554;14.454;2022-08-01T14:15:01;25.40;99.90
41939;DHT22;23057;48.554;14.454;2022-08-01T14:17:32;26.00;99.90
41939;DHT22;23057;48.554;14.454;2022-08-01T14:20:03;26.40;99.90
41939;DHT22;23057;48.554;14.454;2022-08-01T14:22:35;26.00;99.90
41939;DHT22;23057;48.554;14.454;2022-08-01T14:25:06;26.00;99.90
41939;DHT22;23057;48.554;14.454;2022-08-01T14:27:38;26.40;99.90
41939;DHT22;23057;48.554;14.454;2022-08-01T14:30:11;26.80;99.90
41939;DHT22;23057;48.554;14.454;2022-08-01T14:32:43;26.30;99.90
41939;DHT22;23057;48.554;14.454;2022-08-01T14:35:13;25.90;99.90
41939;DHT22;23057;48.554;14.454;2022-08-01T14:37:44;24.90;99.90
41939;DHT22;23057;48.554;14.454;2022-08-01T14:40:15;24.70;99.90
41939;DHT22;23057;48.554;14.454;2022-08-01T14:42:46;24.70;99.90
41939;DHT22;23057;48.554;14.454;2022-08-01T14:45:17;24.50;99.90
41939;DHT22;23057;48.554;14.454;2022-08-01T14:47:47;24.30;99.90
41939;DHT22;23057;48.554;14.454;2022-08-01T14:50:18;24.10;99.90
41939;DHT22;23057;48.554;14.454;2022-08-01T14:52:50;24.00;99.90
41939;DHT22;23057;48.554;14.454;2022-08-01T14:55:20;24.00;99.90
41939;DHT22;23057;48.554;14.454;2022-08-01T14:57:55;24.00;99.90
41939;DHT22;23057;48.554;14.454;2022-08-01T15:00:25;24.00;99.90
41939;DHT22;23057;48.554;14.454;2022-08-01T15:02:56;23.80;99.90
41939;DHT22;23057;48.554;14.454;2022-08-01T15:05:27;23.90;99.90
41939;DHT22;23057;48.554;14.454;2022-08-01T15:07:59;24.10;99.90
41939;DHT22;23057;48.554;14.454;2022-08-01T15:10:29;24.50;99.90
41939;DHT22;23057;48.554;14.454;2022-08-01T15:13:02;24.80;99.90
41939;DHT22;23057;48.554;14.454;2022-08-01T15:15:33;24.90;99.90
41939;DHT22;23057;48.554;14.454;2022-08-01T15:18:04;24.90;99.90
41939;DHT22;23057;48.554;14.454;2022-08-01T15:20:35;25.10;99.90
41939;DHT22;23057;48.554;14.454;2022-08-01T15:23:05;25.10;99.90
41939;DHT22;23057;48.554;14.454;2022-08-01T15:25:36;25.10;99.90
41939;DHT22;23057;48.554;14.454;2022-08-01T15:28:08;25.20;99.90
41939;DHT22;23057;48.554;14.454;2022-08-01T15:30:40;25.10;99.90
41939;DHT22;23057;48.554;14.454;2022-08-01T15:33:11;25.00;99.90
41939;DHT22;23057;48.554;14.454;2022-08-01T15:35:42;24.60;99.90
41939;DHT22;23057;48.554;14.454;2022-08-01T15:38:13;24.20;99.90
41939;DHT22;23057;48.554;14.454;2022-08-01T15:40:44;23.90;99.90
41939;DHT22;23057;48.554;14.454;2022-08-01T15:43:14;24.10;99.90
41939;DHT22;23057;48.554;14.454;2022-08-01T15:45:45;24.30;99.90
41939;DHT22;23057;48.554;14.454;2022-08-01T15:48:16;24.50;99.90
41939;DHT22;23057;48.554;14.454;2022-08-01T15:50:47;24.60;99.90
41939;DHT22;23057;48.554;14.454;2022-08-01T15:53:18;24.60;99.90
41939;DHT22;23057;48.554;14.454;2022-08-01T15:55:50;24.70;99.90
41939;DHT22;23057;48.554;14.454;2022-08-01T15:58:20;24.80;99.90
41939;DHT22;23057;48.554;14.454;2022-08-01T16:00:51;24.80;99.90
41939;DHT22;23057;48.554;14.454;2022-08-01T16:03:22;24.70;99.90
41939;DHT22;23057;48.554;14.454;2022-08-01T16:05:53;24.70;99.90
41939;DHT22;23057;48.554;14.454;2022-08-01T16:08:24;24.70;99.90
41939;DHT22;23057;48.554;14.454;2022-08-01T16:10:55;24.60;99.90
41939;DHT22;23057;48.554;14.454;2022-08-01T16:13:26;24.60;99.90
41939;DHT22;23057;48.554;14.454;2022-08-01T16:15:57;24.50;99.90
41939;DHT22;23057;48.554;14.454;2022-08-01T16:18:28;24.40;99.90
41939;DHT22;23057;48.554;14.454;2022-08-01T16:21:00;24.50;99.90
41939;DHT22;23057;48.554;14.454;2022-08-01T16:23:31;24.50;99.90
41939;DHT22;23057;48.554;14.454;2022-08-01T16:26:02;24.40;99.90
41939;DHT22;23057;48.554;14.454;2022-08-01T16:28:33;24.40;99.90
41939;DHT22;23057;48.554;14.454;2022-08-01T16:31:05;24.60;99.90
41939;DHT22;23057;48.554;14.454;2022-08-01T16:33:36;24.40;99.90
41939;DHT22;23057;48.554;14.454;2022-08-01T16:36:07;24.40;99.90
41939;DHT22;23057;48.554;14.454;2022-08-01T16:38:38;24.30;99.90
41939;DHT22;23057;48.554;14.454;2022-08-01T16:41:09;24.30;99.90
41939;DHT22;23057;48.554;14.454;2022-08-01T16:43:40;24.30;99.90
41939;DHT22;23057;48.554;14.454;2022-08-01T16:46:11;24.30;99.90
41939;DHT22;23057;48.554;14.454;2022-08-01T16:48:42;24.30;99.90